sensor_id;sensor_type;location;lat;lon;timestamp;pressure;altitude;pressure_sealevel;temperature;humidity
10310;BME280;5200;43.236;27.986;2023-06-14T00:02:19;99604.06;;;16.79;100.00
10310;BME280;5200;43.236;27.986;2023-06-14T00:04:46;99595.16;;;16.72;100.00
10310;BME280;5200;43.236;27.986;2023-06-14T00:07:13;99583.63;;;16.65;100.00
10310;BME280;5200;43.236;27.986;2023-06-14T00:09:45;99592.44;;;16.65;100.00
10310;BME280;5200;43.236;27.986;2023-06-14T00:12:14;99583.25;;;16.68;100.00
10310;BME280;5200;43.236;27.986;2023-06-14T00:14:46;99592.13;;;16.75;100.00
10310;BME280;5200;43.236;27.986;2023-06-14T00:17:16;99613.47;;;16.82;100.00
10310;BME280;5200;43.236;27.986;2023-06-14T00:19:43;99623.81;;;16.92;100.00
10310;BME280;5200;43.236;27.986;2023-06-14T00:22:14;99623.81;;;16.92;100.00
10310;BME280;5200;43.236;27.986;2023-06-14T00:24:43;99599.81;;;16.85;100.00
10310;BME280;5200;43.236;27.986;2023-06-14T00:27:14;99598.88;;;16.78;100.00
10310;BME280;5200;43.236;27.986;2023-06-14T00:29:41;99578.94;;;16.67;100.00
10310;BME280;5200;43.236;27.986;2023-06-14T00:32:08;99588.81;;;16.73;100.00
10310;BME280;5200;43.236;27.986;2023-06-14T00:34:43;99566.91;;;16.49;100.00
10310;BME280;5200;43.236;27.986;2023-06-14T00:37:10;99604.31;;;16.69;100.00
10310;BME280;5200;43.236;27.986;2023-06-14T00:39:37;99599.66;;;16.57;100.00
10310;BME280;5200;43.236;27.986;2023-06-14T00:42:05;99592.94;;;16.39;100.00
10310;BME280;5200;43.236;27.986;2023-06-14T00:44:34;99620.19;;;16.48;100.00
10310;BME280;5200;43.236;27.986;2023-06-14T00:47:01;99608.41;;;16.36;100.00
10310;BME280;5200;43.236;27.986;2023-06-14T00:49:34;99605.66;;;16.29;100.00
10310;BME280;5200;43.236;27.986;2023-06-14T00:52:06;99623.88;;;16.32;100.00
10310;BME280;5200;43.236;27.986;2023-06-14T00:54:37;99621.78;;;16.27;100.00
10310;BME280;5200;43.236;27.986;2023-06-14T00:57:08;99606.13;;;16.18;100.00
10310;BME280;5200;43.236;27.986;2023-06-14T00:59:44;99614.38;;;16.23;100.00
10310;BME280;5200;43.236;27.986;2023-06-14T01:02:11;99614.72;;;16.20;100.00
10310;BME280;5200;43.236;27.986;2023-06-14T01:04:41;99626.34;;;16.19;100.00
10310;BME280;5200;43.236;27.986;2023-06-14T01:07:20;99629.00;;;16.19;100.00
10310;BME280;5200;43.236;27.986;2023-06-14T01:10:00;99612.53;;;16.09;100.00
10310;BME280;5200;43.236;27.986;2023-06-14T01:12:38;99598.44;;;16.08;100.00
10310;BME280;5200;43.236;27.986;2023-06-14T01:15:10;99602.47;;;16.04;100.00
10310;BME280;5200;43.236;27.986;2023-06-14T01:17:40;99612.06;;;16.05;100.00
10310;BME280;5200;43.236;27.986;2023-06-14T01:20:11;99612.34;;;16.10;100.00
10310;BME280;5200;43.236;27.986;2023-06-14T01:22:50;99594.75;;;15.94;100.00
10310;BME280;5200;43.236;27.986;2023-06-14T01:25:18;99595.78;;;15.93;100.00
10310;BME280;5200;43.236;27.986;2023-06-14T01:27:47;99612.63;;;16.00;100.00
10310;BME280;5200;43.236;27.986;2023-06-14T01:30:17;99607.16;;;16.02;100.00
10310;BME280;5200;43.236;27.986;2023-06-14T01:32:45;99607.97;;;16.02;100.00
10310;BME280;5200;43.236;27.986;2023-06-14T01:35:13;99611.91;;;16.06;100.00
10310;BME280;5200;43.236;27.986;2023-06-14T01:37:40;99600.44;;;16.06;100.00
10310;BME280;5200;43.236;27.986;2023-06-14T01:40:12;99601.09;;;16.08;100.00
10310;BME280;5200;43.236;27.986;2023-06-14T01:42:39;99619.84;;;16.21;100.00
10310;BME280;5200;43.236;27.986;2023-06-14T01:45:07;99615.56;;;16.20;100.00
10310;BME280;5200;43.236;27.986;2023-06-14T01:47:36;99593.31;;;16.06;100.00
10310;BME280;5200;43.236;27.986;2023-06-14T01:50:03;99582.63;;;16.00;100.00
10310;BME280;5200;43.236;27.986;2023-06-14T01:52:30;99595.69;;;16.01;100.00
10310;BME280;5200;43.236;27.986;2023-06-14T01:54:58;99582.03;;;15.90;100.00
10310;BME280;5200;43.236;27.986;2023-06-14T01:57:30;99598.44;;;15.93;100.00
10310;BME280;5200;43.236;27.986;2023-06-14T01:59:57;99599.19;;;16.02;100.00
10310;BME280;5200;43.236;27.986;2023-06-14T02:02:24;99587.56;;;16.03;100.00
10310;BME280;5200;43.236;27.986;2023-06-14T02:04:51;99581.16;;;15.97;100.00
10310;BME280;5200;43.236;27.986;2023-06-14T02:07:18;99587.66;;;15.95;100.00
10310;BME280;5200;43.236;27.986;2023-06-14T02:09:47;99583.25;;;15.87;100.00
10310;BME280;5200;43.236;27.986;2023-06-14T02:12:14;99619.50;;;16.10;100.00
10310;BME280;5200;43.236;27.986;2023-06-14T02:14:42;99592.75;;;15.96;100.00
10310;BME280;5200;43.236;27.986;2023-06-14T02:17:10;99577.38;;;15.77;100.00
10310;BME280;5200;43.236;27.986;2023-06-14T02:19:37;99599.78;;;15.89;100.00
10310;BME280;5200;43.236;27.986;2023-06-14T02:22:06;99604.84;;;15.84;100.00
10310;BME280;5200;43.236;27.986;2023-06-14T02:24:40;99619.56;;;15.87;100.00
10310;BME280;5200;43.236;27.986;2023-06-14T02:27:07;99613.44;;;15.86;100.00
10310;BME280;5200;43.236;27.986;2023-06-14T02:29:38;99606.56;;;15.77;100.00
10310;BME280;5200;43.236;27.986;2023-06-14T02:32:07;99599.31;;;15.71;100.00
10310;BME280;5200;43.236;27.986;2023-06-14T02:34:34;99597.53;;;15.63;100.00
10310;BME280;5200;43.236;27.986;2023-06-14T02:37:01;99629.72;;;15.83;100.00
10310;BME280;5200;43.236;27.986;2023-06-14T02:39:31;99602.69;;;15.64;100.00
10310;BME280;5200;43.236;27.986;2023-06-14T02:41:58;99591.34;;;15.71;100.00
10310;BME280;5200;43.236;27.986;2023-06-14T02:44:26;99603.75;;;16.08;100.00
10310;BME280;5200;43.236;27.986;2023-06-14T02:46:53;99641.25;;;16.79;100.00
10310;BME280;5200;43.236;27.986;2023-06-14T02:49:25;99644.91;;;17.36;100.00
10310;BME280;5200;43.236;27.986;2023-06-14T02:51:52;99606.31;;;17.47;100.00
10310;BME280;5200;43.236;27.986;2023-06-14T02:54:19;99635.94;;;17.65;100.00
10310;BME280;5200;43.236;27.986;2023-06-14T02:56:47;99625.59;;;18.05;100.00
10310;BME280;5200;43.236;27.986;2023-06-14T02:59:15;99628.84;;;18.77;100.00
10310;BME280;5200;43.236;27.986;2023-06-14T03:01:43;99629.78;;;19.37;100.00
10310;BME280;5200;43.236;27.986;2023-06-14T03:04:10;99635.13;;;19.97;100.00
10310;BME280;5200;43.236;27.986;2023-06-14T03:06:42;99639.50;;;20.50;100.00
10310;BME280;5200;43.236;27.986;2023-06-14T03:09:09;99643.53;;;21.18;96.21
10310;BME280;5200;43.236;27.986;2023-06-14T03:11:44;99624.25;;;21.66;90.72
10310;BME280;5200;43.236;27.986;2023-06-14T03:14:11;99622.69;;;22.02;86.80
10310;BME280;5200;43.236;27.986;2023-06-14T03:16:38;99622.88;;;22.44;83.42
10310;BME280;5200;43.236;27.986;2023-06-14T03:19:12;99654.94;;;22.69;82.52
10310;BME280;5200;43.236;27.986;2023-06-14T03:21:51;99654.34;;;22.97;79.94
10310;BME280;5200;43.236;27.986;2023-06-14T03:24:25;99610.63;;;22.66;79.85
10310;BME280;5200;43.236;27.986;2023-06-14T03:27:18;99627.91;;;22.70;79.73
10310;BME280;5200;43.236;27.986;2023-06-14T03:29:47;99625.72;;;22.79;80.07
10310;BME280;5200;43.236;27.986;2023-06-14T03:32:32;99654.28;;;23.34;77.59
10310;BME280;5200;43.236;27.986;2023-06-14T03:38:30;99625.50;;;24.12;73.96
10310;BME280;5200;43.236;27.986;2023-06-14T03:41:08;99632.69;;;24.58;71.04
10310;BME280;5200;43.236;27.986;2023-06-14T03:43:36;99608.50;;;24.87;69.00
10310;BME280;5200;43.236;27.986;2023-06-14T03:46:30;99625.31;;;25.11;67.67
10310;BME280;5200;43.236;27.986;2023-06-14T03:49:10;99633.22;;;25.29;66.66
10310;BME280;5200;43.236;27.986;2023-06-14T03:52:05;99613.31;;;25.47;59.88
10310;BME280;5200;43.236;27.986;2023-06-14T03:55:11;99611.25;;;25.71;58.89
10310;BME280;5200;43.236;27.986;2023-06-14T03:58:16;99626.41;;;26.11;58.25
10310;BME280;5200;43.236;27.986;2023-06-14T04:00:53;99622.41;;;26.36;55.91
10310;BME280;5200;43.236;27.986;2023-06-14T04:07:02;99650.97;;;27.30;53.67
10310;BME280;5200;43.236;27.986;2023-06-14T04:12:31;99640.31;;;28.20;50.90
10310;BME280;5200;43.236;27.986;2023-06-14T04:15:09;99657.78;;;28.50;49.72
10310;BME280;5200;43.236;27.986;2023-06-14T04:18:13;99643.19;;;28.51;48.73
10310;BME280;5200;43.236;27.986;2023-06-14T04:21:02;99623.94;;;28.48;48.61
10310;BME280;5200;43.236;27.986;2023-06-14T04:23:49;99649.78;;;28.96;47.53
10310;BME280;5200;43.236;27.986;2023-06-14T04:26:21;99641.34;;;28.67;47.71
10310;BME280;5200;43.236;27.986;2023-06-14T04:28:51;99638.09;;;28.65;48.07
10310;BME280;5200;43.236;27.986;2023-06-14T04:31:19;99642.41;;;28.71;47.21
10310;BME280;5200;43.236;27.986;2023-06-14T04:33:47;99650.25;;;28.62;48.31
10310;BME280;5200;43.236;27.986;2023-06-14T04:36:21;99672.00;;;28.93;47.84
10310;BME280;5200;43.236;27.986;2023-06-14T04:38:54;99635.22;;;29.07;47.33
10310;BME280;5200;43.236;27.986;2023-06-14T04:41:23;99678.22;;;28.94;46.67
10310;BME280;5200;43.236;27.986;2023-06-14T04:44:07;99666.34;;;28.37;48.18
10310;BME280;5200;43.236;27.986;2023-06-14T04:46:55;99678.19;;;28.25;48.89
10310;BME280;5200;43.236;27.986;2023-06-14T04:49:42;99689.03;;;28.31;49.10
10310;BME280;5200;43.236;27.986;2023-06-14T04:52:48;99694.75;;;27.92;49.51
10310;BME280;5200;43.236;27.986;2023-06-14T04:55:42;99669.38;;;27.98;49.83
10310;BME280;5200;43.236;27.986;2023-06-14T04:58:18;99665.75;;;28.24;49.35
10310;BME280;5200;43.236;27.986;2023-06-14T05:00:53;99680.47;;;28.44;48.80
10310;BME280;5200;43.236;27.986;2023-06-14T05:03:37;99693.28;;;28.16;49.29
10310;BME280;5200;43.236;27.986;2023-06-14T05:06:07;99696.03;;;28.27;49.63
10310;BME280;5200;43.236;27.986;2023-06-14T05:08:35;99673.06;;;27.87;49.51
10310;BME280;5200;43.236;27.986;2023-06-14T05:11:05;99696.19;;;27.72;50.77
10310;BME280;5200;43.236;27.986;2023-06-14T05:13:32;99694.34;;;27.78;51.09
10310;BME280;5200;43.236;27.986;2023-06-14T05:16:08;99704.47;;;27.60;51.21
10310;BME280;5200;43.236;27.986;2023-06-14T05:18:55;99677.19;;;27.30;52.59
10310;BME280;5200;43.236;27.986;2023-06-14T05:21:22;99683.47;;;27.13;52.81
10310;BME280;5200;43.236;27.986;2023-06-14T05:23:51;99681.63;;;26.92;53.82
10310;BME280;5200;43.236;27.986;2023-06-14T05:26:21;99711.34;;;27.19;54.84
10310;BME280;5200;43.236;27.986;2023-06-14T05:28:54;99698.06;;;26.90;54.17
10310;BME280;5200;43.236;27.986;2023-06-14T05:31:23;99716.59;;;26.60;55.35
10310;BME280;5200;43.236;27.986;2023-06-14T05:33:59;99722.03;;;25.75;58.08
10310;BME280;5200;43.236;27.986;2023-06-14T05:36:26;99729.19;;;25.36;60.80
10310;BME280;5200;43.236;27.986;2023-06-14T05:38:58;99728.78;;;25.44;62.22
10310;BME280;5200;43.236;27.986;2023-06-14T05:41:31;99720.97;;;25.59;59.79
10310;BME280;5200;43.236;27.986;2023-06-14T05:44:19;99727.22;;;25.31;62.17
10310;BME280;5200;43.236;27.986;2023-06-14T05:49:33;99741.88;;;25.11;63.29
10310;BME280;5200;43.236;27.986;2023-06-14T05:52:03;99734.19;;;25.03;64.53
10310;BME280;5200;43.236;27.986;2023-06-14T05:54:30;99743.03;;;25.16;62.94
10310;BME280;5200;43.236;27.986;2023-06-14T05:57:02;99711.09;;;24.91;62.33
10310;BME280;5200;43.236;27.986;2023-06-14T05:59:31;99740.66;;;25.02;63.79
10310;BME280;5200;43.236;27.986;2023-06-14T06:02:22;99705.06;;;25.00;62.81
10310;BME280;5200;43.236;27.986;2023-06-14T06:07:54;99754.41;;;25.46;59.86
10310;BME280;5200;43.236;27.986;2023-06-14T06:10:41;99746.47;;;25.85;58.59
10310;BME280;5200;43.236;27.986;2023-06-14T06:13:22;99734.16;;;26.23;56.76
10310;BME280;5200;43.236;27.986;2023-06-14T06:15:50;99706.69;;;26.26;54.94
10310;BME280;5200;43.236;27.986;2023-06-14T06:18:23;99757.78;;;26.72;54.44
10310;BME280;5200;43.236;27.986;2023-06-14T06:21:05;99716.47;;;26.93;51.23
10310;BME280;5200;43.236;27.986;2023-06-14T06:23:56;99735.97;;;27.23;50.87
10310;BME280;5200;43.236;27.986;2023-06-14T06:26:29;99729.81;;;27.27;50.86
10310;BME280;5200;43.236;27.986;2023-06-14T06:29:01;99733.66;;;27.31;50.04
10310;BME280;5200;43.236;27.986;2023-06-14T06:31:31;99716.84;;;27.24;49.86
10310;BME280;5200;43.236;27.986;2023-06-14T06:34:00;99720.84;;;27.49;49.21
10310;BME280;5200;43.236;27.986;2023-06-14T06:36:27;99746.63;;;27.89;49.53
10310;BME280;5200;43.236;27.986;2023-06-14T06:39:02;99734.97;;;28.20;47.28
10310;BME280;5200;43.236;27.986;2023-06-14T06:41:37;99744.66;;;28.54;45.78
10310;BME280;5200;43.236;27.986;2023-06-14T06:44:18;99731.47;;;28.20;44.55
10310;BME280;5200;43.236;27.986;2023-06-14T06:47:00;99746.44;;;27.68;45.78
10310;BME280;5200;43.236;27.986;2023-06-14T06:49:40;99738.28;;;27.14;47.56
10310;BME280;5200;43.236;27.986;2023-06-14T06:52:07;99728.16;;;27.21;48.02
10310;BME280;5200;43.236;27.986;2023-06-14T06:54:36;99727.09;;;27.00;47.33
10310;BME280;5200;43.236;27.986;2023-06-14T06:57:04;99761.91;;;26.58;48.95
10310;BME280;5200;43.236;27.986;2023-06-14T06:59:37;99762.28;;;26.49;49.78
10310;BME280;5200;43.236;27.986;2023-06-14T07:02:05;99718.31;;;25.93;49.24
10310;BME280;5200;43.236;27.986;2023-06-14T07:04:32;99737.66;;;25.44;51.34
10310;BME280;5200;43.236;27.986;2023-06-14T07:07:04;99736.59;;;24.76;54.26
10310;BME280;5200;43.236;27.986;2023-06-14T07:09:33;99749.50;;;24.74;54.82
10310;BME280;5200;43.236;27.986;2023-06-14T07:12:06;99733.75;;;24.95;53.85
10310;BME280;5200;43.236;27.986;2023-06-14T07:14:37;99731.31;;;25.50;53.16
10310;BME280;5200;43.236;27.986;2023-06-14T07:17:04;99731.22;;;25.91;52.72
10310;BME280;5200;43.236;27.986;2023-06-14T07:19:31;99722.56;;;26.23;50.53
10310;BME280;5200;43.236;27.986;2023-06-14T07:21:58;99724.78;;;26.65;50.24
10310;BME280;5200;43.236;27.986;2023-06-14T07:24:33;99715.34;;;26.89;48.56
10310;BME280;5200;43.236;27.986;2023-06-14T07:27:04;99748.47;;;27.07;47.37
10310;BME280;5200;43.236;27.986;2023-06-14T07:29:31;99720.22;;;26.92;46.75
10310;BME280;5200;43.236;27.986;2023-06-14T07:32:05;99723.66;;;26.27;48.88
10310;BME280;5200;43.236;27.986;2023-06-14T07:34:34;99732.63;;;26.49;49.19
10310;BME280;5200;43.236;27.986;2023-06-14T07:37:03;99744.78;;;26.91;48.58
10310;BME280;5200;43.236;27.986;2023-06-14T07:39:30;99749.91;;;26.92;47.60
10310;BME280;5200;43.236;27.986;2023-06-14T07:42:09;99723.13;;;26.64;47.24
10310;BME280;5200;43.236;27.986;2023-06-14T07:44:36;99738.09;;;26.15;49.18
10310;BME280;5200;43.236;27.986;2023-06-14T07:47:04;99727.13;;;25.88;51.09
10310;BME280;5200;43.236;27.986;2023-06-14T07:49:40;99732.53;;;26.05;50.44
10310;BME280;5200;43.236;27.986;2023-06-14T07:52:12;99744.31;;;26.38;50.22
10310;BME280;5200;43.236;27.986;2023-06-14T07:54:39;99740.50;;;26.34;50.00
10310;BME280;5200;43.236;27.986;2023-06-14T07:57:08;99724.94;;;26.02;51.44
10310;BME280;5200;43.236;27.986;2023-06-14T07:59:50;99733.59;;;26.43;51.08
10310;BME280;5200;43.236;27.986;2023-06-14T08:02:18;99729.16;;;26.71;50.27
10310;BME280;5200;43.236;27.986;2023-06-14T08:04:59;99759.28;;;27.56;48.91
10310;BME280;5200;43.236;27.986;2023-06-14T08:08:01;99756.06;;;28.23;45.53
10310;BME280;5200;43.236;27.986;2023-06-14T08:10:30;99766.53;;;28.47;43.15
10310;BME280;5200;43.236;27.986;2023-06-14T08:13:07;99748.47;;;28.58;42.72
10310;BME280;5200;43.236;27.986;2023-06-14T08:15:44;99751.00;;;28.80;41.24
10310;BME280;5200;43.236;27.986;2023-06-14T08:18:16;99725.03;;;28.79;41.82
10310;BME280;5200;43.236;27.986;2023-06-14T08:20:49;99758.56;;;28.78;42.31
10310;BME280;5200;43.236;27.986;2023-06-14T08:23:19;99755.50;;;28.16;44.84
10310;BME280;5200;43.236;27.986;2023-06-14T08:25:48;99750.59;;;28.13;45.44
10310;BME280;5200;43.236;27.986;2023-06-14T08:28:16;99751.03;;;28.00;45.43
10310;BME280;5200;43.236;27.986;2023-06-14T08:30:49;99739.19;;;27.47;46.82
10310;BME280;5200;43.236;27.986;2023-06-14T08:33:17;99748.53;;;27.34;47.19
10310;BME280;5200;43.236;27.986;2023-06-14T08:35:44;99765.41;;;27.02;47.06
10310;BME280;5200;43.236;27.986;2023-06-14T08:38:19;99770.31;;;26.83;48.00
10310;BME280;5200;43.236;27.986;2023-06-14T08:40:50;99771.78;;;26.91;49.34
10310;BME280;5200;43.236;27.986;2023-06-14T08:43:20;99739.59;;;26.84;49.59
10310;BME280;5200;43.236;27.986;2023-06-14T08:45:48;99750.13;;;27.08;49.79
10310;BME280;5200;43.236;27.986;2023-06-14T08:48:18;99753.13;;;27.33;49.19
10310;BME280;5200;43.236;27.986;2023-06-14T08:50:46;99747.97;;;27.32;48.83
10310;BME280;5200;43.236;27.986;2023-06-14T08:53:14;99738.44;;;27.24;48.38
10310;BME280;5200;43.236;27.986;2023-06-14T08:55:46;99758.25;;;27.13;48.17
10310;BME280;5200;43.236;27.986;2023-06-14T08:58:22;99721.44;;;26.80;48.79
10310;BME280;5200;43.236;27.986;2023-06-14T09:01:02;99724.16;;;26.58;50.12
10310;BME280;5200;43.236;27.986;2023-06-14T09:03:32;99742.59;;;27.10;51.02
10310;BME280;5200;43.236;27.986;2023-06-14T09:06:11;99749.03;;;27.58;48.74
10310;BME280;5200;43.236;27.986;2023-06-14T09:08:42;99738.50;;;27.56;47.54
10310;BME280;5200;43.236;27.986;2023-06-14T09:11:15;99740.88;;;27.26;47.99
10310;BME280;5200;43.236;27.986;2023-06-14T09:13:50;99714.28;;;27.39;47.64
10310;BME280;5200;43.236;27.986;2023-06-14T09:16:19;99725.66;;;28.01;47.50
10310;BME280;5200;43.236;27.986;2023-06-14T09:18:49;99723.84;;;28.59;45.29
10310;BME280;5200;43.236;27.986;2023-06-14T09:21:18;99731.38;;;28.52;45.41
10310;BME280;5200;43.236;27.986;2023-06-14T09:23:47;99710.34;;;28.64;44.48
10310;BME280;5200;43.236;27.986;2023-06-14T09:26:19;99724.72;;;28.75;43.46
10310;BME280;5200;43.236;27.986;2023-06-14T09:28:50;99735.84;;;28.79;43.72
10310;BME280;5200;43.236;27.986;2023-06-14T09:31:18;99720.34;;;28.69;44.10
10310;BME280;5200;43.236;27.986;2023-06-14T09:33:49;99720.13;;;28.81;43.98
10310;BME280;5200;43.236;27.986;2023-06-14T09:36:27;99705.66;;;29.07;44.58
10310;BME280;5200;43.236;27.986;2023-06-14T09:38:57;99705.16;;;29.31;46.44
10310;BME280;5200;43.236;27.986;2023-06-14T09:41:31;99721.75;;;29.70;46.25
10310;BME280;5200;43.236;27.986;2023-06-14T09:44:20;99710.56;;;29.46;44.85
10310;BME280;5200;43.236;27.986;2023-06-14T09:46:55;99725.16;;;29.10;47.22
10310;BME280;5200;43.236;27.986;2023-06-14T09:49:22;99725.63;;;29.01;45.17
10310;BME280;5200;43.236;27.986;2023-06-14T09:51:52;99723.94;;;28.85;44.77
10310;BME280;5200;43.236;27.986;2023-06-14T09:54:22;99690.47;;;28.43;46.62
10310;BME280;5200;43.236;27.986;2023-06-14T09:56:56;99720.84;;;28.08;49.77
10310;BME280;5200;43.236;27.986;2023-06-14T09:59:26;99693.19;;;27.69;49.74
10310;BME280;5200;43.236;27.986;2023-06-14T10:01:58;99697.13;;;27.56;48.58
10310;BME280;5200;43.236;27.986;2023-06-14T10:04:28;99697.53;;;27.70;50.73
10310;BME280;5200;43.236;27.986;2023-06-14T10:06:56;99720.63;;;27.82;51.71
10310;BME280;5200;43.236;27.986;2023-06-14T10:09:24;99716.00;;;27.51;52.65
10310;BME280;5200;43.236;27.986;2023-06-14T10:12:12;99743.03;;;27.51;53.77
10310;BME280;5200;43.236;27.986;2023-06-14T10:18:08;99707.69;;;27.03;55.79
10310;BME280;5200;43.236;27.986;2023-06-14T10:24:32;99730.34;;;26.80;56.46
10310;BME280;5200;43.236;27.986;2023-06-14T10:27:08;99710.53;;;26.69;56.58
10310;BME280;5200;43.236;27.986;2023-06-14T10:30:08;99719.50;;;26.75;57.34
10310;BME280;5200;43.236;27.986;2023-06-14T10:33:26;99719.13;;;26.88;56.72
10310;BME280;5200;43.236;27.986;2023-06-14T10:36:25;99708.88;;;26.68;56.23
10310;BME280;5200;43.236;27.986;2023-06-14T10:39:03;99714.47;;;26.62;56.94
10310;BME280;5200;43.236;27.986;2023-06-14T10:41:33;99738.25;;;26.65;57.13
10310;BME280;5200;43.236;27.986;2023-06-14T10:44:33;99746.03;;;26.44;57.89
10310;BME280;5200;43.236;27.986;2023-06-14T10:47:09;99750.81;;;26.03;59.25
10310;BME280;5200;43.236;27.986;2023-06-14T10:49:41;99746.25;;;25.58;60.99
10310;BME280;5200;43.236;27.986;2023-06-14T10:52:12;99741.09;;;25.40;61.16
10310;BME280;5200;43.236;27.986;2023-06-14T10:55:18;99743.91;;;25.45;60.96
10310;BME280;5200;43.236;27.986;2023-06-14T10:57:56;99754.28;;;25.24;60.79
10310;BME280;5200;43.236;27.986;2023-06-14T11:00:53;99770.09;;;25.49;61.03
10310;BME280;5200;43.236;27.986;2023-06-14T11:03:46;99742.25;;;25.44;61.72
10310;BME280;5200;43.236;27.986;2023-06-14T11:06:46;99762.91;;;25.55;63.79
10310;BME280;5200;43.236;27.986;2023-06-14T11:09:48;99739.19;;;25.52;64.08
10310;BME280;5200;43.236;27.986;2023-06-14T11:12:21;99736.56;;;25.57;64.86
10310;BME280;5200;43.236;27.986;2023-06-14T11:14:53;99763.50;;;25.57;64.75
10310;BME280;5200;43.236;27.986;2023-06-14T11:17:20;99738.00;;;25.48;64.97
10310;BME280;5200;43.236;27.986;2023-06-14T11:20:08;99736.06;;;25.43;64.33
10310;BME280;5200;43.236;27.986;2023-06-14T11:22:39;99743.50;;;25.70;64.29
10310;BME280;5200;43.236;27.986;2023-06-14T11:25:08;99732.38;;;25.95;62.47
10310;BME280;5200;43.236;27.986;2023-06-14T11:27:38;99760.94;;;26.30;61.27
10310;BME280;5200;43.236;27.986;2023-06-14T11:30:15;99765.16;;;26.43;60.41
10310;BME280;5200;43.236;27.986;2023-06-14T11:32:46;99756.09;;;26.49;60.93
10310;BME280;5200;43.236;27.986;2023-06-14T11:35:25;99766.13;;;26.53;60.58
10310;BME280;5200;43.236;27.986;2023-06-14T11:37:56;99747.88;;;26.22;65.11
10310;BME280;5200;43.236;27.986;2023-06-14T11:40:31;99761.69;;;26.08;65.85
10310;BME280;5200;43.236;27.986;2023-06-14T11:43:19;99761.94;;;25.90;68.95
10310;BME280;5200;43.236;27.986;2023-06-14T11:45:54;99768.19;;;25.79;70.48
10310;BME280;5200;43.236;27.986;2023-06-14T11:48:35;99759.03;;;25.80;72.24
10310;BME280;5200;43.236;27.986;2023-06-14T11:51:07;99766.75;;;25.42;75.38
10310;BME280;5200;43.236;27.986;2023-06-14T11:53:37;99764.28;;;25.41;76.70
10310;BME280;5200;43.236;27.986;2023-06-14T11:56:08;99748.19;;;25.29;77.13
10310;BME280;5200;43.236;27.986;2023-06-14T11:58:39;99774.69;;;25.37;78.17
10310;BME280;5200;43.236;27.986;2023-06-14T12:01:06;99780.41;;;25.12;80.92
10310;BME280;5200;43.236;27.986;2023-06-14T12:03:35;99780.63;;;25.10;84.08
10310;BME280;5200;43.236;27.986;2023-06-14T12:06:26;99753.38;;;24.95;84.26
10310;BME280;5200;43.236;27.986;2023-06-14T12:09:11;99790.44;;;25.17;84.92
10310;BME280;5200;43.236;27.986;2023-06-14T12:15:09;99781.50;;;24.87;86.43
10310;BME280;5200;43.236;27.986;2023-06-14T12:17:44;99768.69;;;24.54;88.04
10310;BME280;5200;43.236;27.986;2023-06-14T12:20:13;99774.41;;;24.34;88.46
10310;BME280;5200;43.236;27.986;2023-06-14T12:22:53;99766.34;;;24.34;89.69
10310;BME280;5200;43.236;27.986;2023-06-14T12:25:59;99755.22;;;24.54;88.56
10310;BME280;5200;43.236;27.986;2023-06-14T12:28:23;99767.38;;;24.68;85.55
10310;BME280;5200;43.236;27.986;2023-06-14T12:30:58;99762.34;;;24.72;86.23
10310;BME280;5200;43.236;27.986;2023-06-14T12:33:33;99759.56;;;24.67;86.52
10310;BME280;5200;43.236;27.986;2023-06-14T12:36:13;99768.13;;;24.93;85.70
10310;BME280;5200;43.236;27.986;2023-06-14T12:38:42;99762.94;;;24.74;86.58
10310;BME280;5200;43.236;27.986;2023-06-14T12:41:23;99737.19;;;24.66;87.69
10310;BME280;5200;43.236;27.986;2023-06-14T12:44:06;99747.03;;;24.61;86.24
10310;BME280;5200;43.236;27.986;2023-06-14T12:46:38;99769.25;;;24.68;87.38
10310;BME280;5200;43.236;27.986;2023-06-14T12:49:28;99767.03;;;24.65;87.17
10310;BME280;5200;43.236;27.986;2023-06-14T12:52:00;99772.75;;;24.57;89.15
10310;BME280;5200;43.236;27.986;2023-06-14T12:54:39;99748.78;;;24.20;90.35
10310;BME280;5200;43.236;27.986;2023-06-14T12:57:19;99742.59;;;24.19;87.80
10310;BME280;5200;43.236;27.986;2023-06-14T12:59:46;99762.94;;;24.27;83.75
10310;BME280;5200;43.236;27.986;2023-06-14T13:02:19;99762.09;;;24.15;85.05
10310;BME280;5200;43.236;27.986;2023-06-14T13:04:50;99758.69;;;24.08;85.81
10310;BME280;5200;43.236;27.986;2023-06-14T13:07:23;99744.91;;;23.50;90.83
10310;BME280;5200;43.236;27.986;2023-06-14T13:09:54;99741.25;;;22.96;97.22
10310;BME280;5200;43.236;27.986;2023-06-14T13:12:35;99730.97;;;22.56;100.00
10310;BME280;5200;43.236;27.986;2023-06-14T13:15:06;99770.44;;;22.86;99.17
10310;BME280;5200;43.236;27.986;2023-06-14T13:17:34;99733.34;;;22.83;96.99
10310;BME280;5200;43.236;27.986;2023-06-14T13:20:06;99736.34;;;22.74;99.58
10310;BME280;5200;43.236;27.986;2023-06-14T13:22:37;99741.53;;;22.69;98.80
10310;BME280;5200;43.236;27.986;2023-06-14T13:25:09;99765.41;;;22.96;98.54
10310;BME280;5200;43.236;27.986;2023-06-14T13:27:39;99776.00;;;22.91;99.31
10310;BME280;5200;43.236;27.986;2023-06-14T13:30:13;99762.13;;;22.75;100.00
10310;BME280;5200;43.236;27.986;2023-06-14T13:32:40;99734.94;;;22.53;100.00
10310;BME280;5200;43.236;27.986;2023-06-14T13:35:08;99726.03;;;22.53;99.80
10310;BME280;5200;43.236;27.986;2023-06-14T13:37:36;99769.44;;;22.87;100.00
10310;BME280;5200;43.236;27.986;2023-06-14T13:40:29;99723.09;;;22.79;100.00
10310;BME280;5200;43.236;27.986;2023-06-14T13:42:56;99758.94;;;23.04;99.19
10310;BME280;5200;43.236;27.986;2023-06-14T13:45:35;99748.44;;;22.84;100.00
10310;BME280;5200;43.236;27.986;2023-06-14T13:48:07;99746.63;;;22.77;100.00
10310;BME280;5200;43.236;27.986;2023-06-14T13:50:40;99770.16;;;22.75;100.00
10310;BME280;5200;43.236;27.986;2023-06-14T13:53:07;99744.38;;;22.56;100.00
10310;BME280;5200;43.236;27.986;2023-06-14T13:55:54;99774.31;;;22.71;100.00
10310;BME280;5200;43.236;27.986;2023-06-14T13:58:23;99762.09;;;22.57;100.00
10310;BME280;5200;43.236;27.986;2023-06-14T14:01:25;99753.03;;;22.58;100.00